<?xml version="1.0" encoding="UTF-8" standalone="no" ?>
<gpx xmlns="http://www.topografix.com/GPX/1/1" xmlns:xsi="http://www.w3.org/2001/XMLSchema-instance" xsi:schemaLocation="http://www.topografix.com/GPX/1/1 http://www.topografix.com/GPX/1/1/gpx.xsd" version="1.1" creator="VisuGPX - https://www.visugpx.com">
  <metadata>
    <name>vtt st astier</name>
  </metadata>
  <trk>
    <name><![CDATA[AST 28 BLEUE]]></name>
    <extensions>
      <line xmlns="http://www.topografix.com/GPX/gpx_style/0/2">
        <color>0000FF</color>
        <width>4</width>
      </line>
    </extensions>
    <trkseg>
      <trkpt lat="45.14451" lon="0.51935">
        <ele>96.799987792969</ele>
        <time>2017-02-13T11:09:19Z</time>
      </trkpt>
      <trkpt lat="45.14451" lon="0.51931">
        <ele>96.799987792969</ele>
        <time>2017-02-13T11:09:23Z</time>
      </trkpt>
      <trkpt lat="45.14449" lon="0.51933">
        <ele>96.799987792969</ele>
        <time>2017-02-13T11:09:25Z</time>
      </trkpt>
      <trkpt lat="45.14447" lon="0.51937">
        <ele>96</ele>
        <time>2017-02-13T11:09:27Z</time>
      </trkpt>
      <trkpt lat="45.14445" lon="0.51939">
        <ele>95.799987792969</ele>
        <time>2017-02-13T11:09:28Z</time>
      </trkpt>
      <trkpt lat="45.14439" lon="0.51944">
        <ele>95.400024414062</ele>
        <time>2017-02-13T11:09:30Z</time>
      </trkpt>
      <trkpt lat="45.14429" lon="0.51954">
        <ele>94.799987792969</ele>
        <time>2017-02-13T11:09:33Z</time>
      </trkpt>
      <trkpt lat="45.14424" lon="0.51956">
        <ele>94.599975585938</ele>
        <time>2017-02-13T11:09:34Z</time>
      </trkpt>
      <trkpt lat="45.14411" lon="0.51955">
        <ele>94.400024414062</ele>
        <time>2017-02-13T11:09:37Z</time>
      </trkpt>
      <trkpt lat="45.14395" lon="0.5195">
        <ele>94.799987792969</ele>
        <time>2017-02-13T11:09:41Z</time>
      </trkpt>
      <trkpt lat="45.14382" lon="0.51948">
        <ele>95.200012207031</ele>
        <time>2017-02-13T11:09:44Z</time>
      </trkpt>
      <trkpt lat="45.14373" lon="0.51949">
        <ele>95</ele>
        <time>2017-02-13T11:09:46Z</time>
      </trkpt>
      <trkpt lat="45.14364" lon="0.51947">
        <ele>94.200012207031</ele>
        <time>2017-02-13T11:09:48Z</time>
      </trkpt>
      <trkpt lat="45.14355" lon="0.51941">
        <ele>93.799987792969</ele>
        <time>2017-02-13T11:09:50Z</time>
      </trkpt>
      <trkpt lat="45.14351" lon="0.51938">
        <ele>93.599975585938</ele>
        <time>2017-02-13T11:09:51Z</time>
      </trkpt>
      <trkpt lat="45.14344" lon="0.5193">
        <ele>93.599975585938</ele>
        <time>2017-02-13T11:09:53Z</time>
      </trkpt>
      <trkpt lat="45.1434" lon="0.51925">
        <ele>93.599975585938</ele>
        <time>2017-02-13T11:09:54Z</time>
      </trkpt>
      <trkpt lat="45.14335" lon="0.51903">
        <ele>93.799987792969</ele>
        <time>2017-02-13T11:09:57Z</time>
      </trkpt>
      <trkpt lat="45.14325" lon="0.51836">
        <ele>94</ele>
        <time>2017-02-13T11:10:06Z</time>
      </trkpt>
      <trkpt lat="45.14318" lon="0.51815">
        <ele>93.599975585938</ele>
        <time>2017-02-13T11:10:09Z</time>
      </trkpt>
      <trkpt lat="45.14313" lon="0.51801">
        <ele>93.599975585938</ele>
        <time>2017-02-13T11:10:11Z</time>
      </trkpt>
      <trkpt lat="45.14296" lon="0.51744">
        <ele>92.599975585938</ele>
        <time>2017-02-13T11:10:18Z</time>
      </trkpt>
      <trkpt lat="45.14291" lon="0.5171">
        <ele>92.200012207031</ele>
        <time>2017-02-13T11:10:22Z</time>
      </trkpt>
      <trkpt lat="45.14288" lon="0.51695">
        <ele>92.400024414062</ele>
        <time>2017-02-13T11:10:24Z</time>
      </trkpt>
      <trkpt lat="45.14278" lon="0.5165">
        <ele>92.599975585938</ele>
        <time>2017-02-13T11:10:30Z</time>
      </trkpt>
      <trkpt lat="45.14266" lon="0.51598">
        <ele>92.799987792969</ele>
        <time>2017-02-13T11:10:37Z</time>
      </trkpt>
      <trkpt lat="45.14263" lon="0.51592">
        <ele>92.799987792969</ele>
        <time>2017-02-13T11:10:38Z</time>
      </trkpt>
      <trkpt lat="45.14253" lon="0.51581">
        <ele>93.200012207031</ele>
        <time>2017-02-13T11:10:40Z</time>
      </trkpt>
      <trkpt lat="45.14242" lon="0.51569">
        <ele>93.200012207031</ele>
        <time>2017-02-13T11:10:42Z</time>
      </trkpt>
      <trkpt lat="45.1422" lon="0.51552">
        <ele>93</ele>
        <time>2017-02-13T11:10:46Z</time>
      </trkpt>
      <trkpt lat="45.14213" lon="0.51549">
        <ele>93</ele>
        <time>2017-02-13T11:10:47Z</time>
      </trkpt>
      <trkpt lat="45.14201" lon="0.5155">
        <ele>93.200012207031</ele>
        <time>2017-02-13T11:10:49Z</time>
      </trkpt>
      <trkpt lat="45.14186" lon="0.51541">
        <ele>93.200012207031</ele>
        <time>2017-02-13T11:10:52Z</time>
      </trkpt>
      <trkpt lat="45.14179" lon="0.5153">
        <ele>93.200012207031</ele>
        <time>2017-02-13T11:10:54Z</time>
      </trkpt>
      <trkpt lat="45.14175" lon="0.51525">
        <ele>93</ele>
        <time>2017-02-13T11:10:55Z</time>
      </trkpt>
      <trkpt lat="45.14171" lon="0.51517">
        <ele>92.599975585938</ele>
        <time>2017-02-13T11:10:57Z</time>
      </trkpt>
      <trkpt lat="45.14158" lon="0.51491">
        <ele>93.200012207031</ele>
        <time>2017-02-13T11:11:02Z</time>
      </trkpt>
      <trkpt lat="45.14155" lon="0.51485">
        <ele>93.599975585938</ele>
        <time>2017-02-13T11:11:03Z</time>
      </trkpt>
      <trkpt lat="45.1414" lon="0.51446">
        <ele>94.200012207031</ele>
        <time>2017-02-13T11:11:09Z</time>
      </trkpt>
      <trkpt lat="45.14146" lon="0.51426">
        <ele>94.599975585938</ele>
        <time>2017-02-13T11:11:12Z</time>
      </trkpt>
      <trkpt lat="45.14149" lon="0.5142">
        <ele>94.799987792969</ele>
        <time>2017-02-13T11:11:13Z</time>
      </trkpt>
      <trkpt lat="45.14152" lon="0.51414">
        <ele>95</ele>
        <time>2017-02-13T11:11:14Z</time>
      </trkpt>
      <trkpt lat="45.14158" lon="0.51404">
        <ele>95</ele>
        <time>2017-02-13T11:11:16Z</time>
      </trkpt>
      <trkpt lat="45.14161" lon="0.514">
        <ele>95</ele>
        <time>2017-02-13T11:11:17Z</time>
      </trkpt>
      <trkpt lat="45.14162" lon="0.51379">
        <ele>94.200012207031</ele>
        <time>2017-02-13T11:11:21Z</time>
      </trkpt>
      <trkpt lat="45.14156" lon="0.51371">
        <ele>94.200012207031</ele>
        <time>2017-02-13T11:11:23Z</time>
      </trkpt>
      <trkpt lat="45.14145" lon="0.5136">
        <ele>94</ele>
        <time>2017-02-13T11:11:26Z</time>
      </trkpt>
      <trkpt lat="45.14138" lon="0.51354">
        <ele>93.799987792969</ele>
        <time>2017-02-13T11:11:28Z</time>
      </trkpt>
      <trkpt lat="45.14134" lon="0.51353">
        <ele>93.799987792969</ele>
        <time>2017-02-13T11:11:29Z</time>
      </trkpt>
      <trkpt lat="45.1413" lon="0.51356">
        <ele>93.599975585938</ele>
        <time>2017-02-13T11:11:30Z</time>
      </trkpt>
      <trkpt lat="45.14123" lon="0.51365">
        <ele>93.200012207031</ele>
        <time>2017-02-13T11:11:32Z</time>
      </trkpt>
      <trkpt lat="45.14116" lon="0.5137">
        <ele>93</ele>
        <time>2017-02-13T11:11:34Z</time>
      </trkpt>
      <trkpt lat="45.14108" lon="0.51362">
        <ele>92.799987792969</ele>
        <time>2017-02-13T11:11:36Z</time>
      </trkpt>
      <trkpt lat="45.14101" lon="0.51346">
        <ele>92.799987792969</ele>
        <time>2017-02-13T11:11:39Z</time>
      </trkpt>
      <trkpt lat="45.14094" lon="0.51328">
        <ele>92.799987792969</ele>
        <time>2017-02-13T11:11:42Z</time>
      </trkpt>
      <trkpt lat="45.14091" lon="0.51322">
        <ele>92.799987792969</ele>
        <time>2017-02-13T11:11:43Z</time>
      </trkpt>
      <trkpt lat="45.14071" lon="0.5128">
        <ele>93.599975585938</ele>
        <time>2017-02-13T11:11:50Z</time>
      </trkpt>
      <trkpt lat="45.14068" lon="0.51274">
        <ele>94</ele>
        <time>2017-02-13T11:11:51Z</time>
      </trkpt>
      <trkpt lat="45.14044" lon="0.51219">
        <ele>94.599975585938</ele>
        <time>2017-02-13T11:12:00Z</time>
      </trkpt>
      <trkpt lat="45.14034" lon="0.51187">
        <ele>94.400024414062</ele>
        <time>2017-02-13T11:12:06Z</time>
      </trkpt>
      <trkpt lat="45.14039" lon="0.51173">
        <ele>94.599975585938</ele>
        <time>2017-02-13T11:12:09Z</time>
      </trkpt>
      <trkpt lat="45.14048" lon="0.51159">
        <ele>95.200012207031</ele>
        <time>2017-02-13T11:12:13Z</time>
      </trkpt>
      <trkpt lat="45.14051" lon="0.51151">
        <ele>96.400024414062</ele>
        <time>2017-02-13T11:12:15Z</time>
      </trkpt>
      <trkpt lat="45.14053" lon="0.51142">
        <ele>96.599975585938</ele>
        <time>2017-02-13T11:12:18Z</time>
      </trkpt>
      <trkpt lat="45.14053" lon="0.51124">
        <ele>96.799987792969</ele>
        <time>2017-02-13T11:12:23Z</time>
      </trkpt>
      <trkpt lat="45.14054" lon="0.51116">
        <ele>98</ele>
        <time>2017-02-13T11:12:25Z</time>
      </trkpt>
      <trkpt lat="45.14057" lon="0.5109">
        <ele>97.400024414062</ele>
        <time>2017-02-13T11:12:30Z</time>
      </trkpt>
      <trkpt lat="45.14058" lon="0.51084">
        <ele>96.599975585938</ele>
        <time>2017-02-13T11:12:31Z</time>
      </trkpt>
      <trkpt lat="45.14061" lon="0.51071">
        <ele>95.200012207031</ele>
        <time>2017-02-13T11:12:33Z</time>
      </trkpt>
      <trkpt lat="45.14065" lon="0.51058">
        <ele>94.799987792969</ele>
        <time>2017-02-13T11:12:35Z</time>
      </trkpt>
      <trkpt lat="45.14067" lon="0.51051">
        <ele>94.799987792969</ele>
        <time>2017-02-13T11:12:36Z</time>
      </trkpt>
      <trkpt lat="45.14075" lon="0.51033">
        <ele>96.400024414062</ele>
        <time>2017-02-13T11:12:39Z</time>
      </trkpt>
      <trkpt lat="45.14078" lon="0.51026">
        <ele>97</ele>
        <time>2017-02-13T11:12:40Z</time>
      </trkpt>
      <trkpt lat="45.14083" lon="0.51014">
        <ele>97.400024414062</ele>
        <time>2017-02-13T11:12:42Z</time>
      </trkpt>
      <trkpt lat="45.14107" lon="0.50964">
        <ele>98</ele>
        <time>2017-02-13T11:12:50Z</time>
      </trkpt>
      <trkpt lat="45.14129" lon="0.50928">
        <ele>96.599975585938</ele>
        <time>2017-02-13T11:12:56Z</time>
      </trkpt>
      <trkpt lat="45.14132" lon="0.50922">
        <ele>96.400024414062</ele>
        <time>2017-02-13T11:12:57Z</time>
      </trkpt>
      <trkpt lat="45.14143" lon="0.50895">
        <ele>96.599975585938</ele>
        <time>2017-02-13T11:13:02Z</time>
      </trkpt>
      <trkpt lat="45.14158" lon="0.50864">
        <ele>96.400024414062</ele>
        <time>2017-02-13T11:13:08Z</time>
      </trkpt>
      <trkpt lat="45.14161" lon="0.50858">
        <ele>96.200012207031</ele>
        <time>2017-02-13T11:13:09Z</time>
      </trkpt>
      <trkpt lat="45.1417" lon="0.50835">
        <ele>96.599975585938</ele>
        <time>2017-02-13T11:13:13Z</time>
      </trkpt>
      <trkpt lat="45.14173" lon="0.50809">
        <ele>97.599975585938</ele>
        <time>2017-02-13T11:13:17Z</time>
      </trkpt>
      <trkpt lat="45.14165" lon="0.5079">
        <ele>98</ele>
        <time>2017-02-13T11:13:20Z</time>
      </trkpt>
      <trkpt lat="45.14154" lon="0.50788">
        <ele>98</ele>
        <time>2017-02-13T11:13:22Z</time>
      </trkpt>
      <trkpt lat="45.14137" lon="0.50781">
        <ele>96.799987792969</ele>
        <time>2017-02-13T11:13:25Z</time>
      </trkpt>
      <trkpt lat="45.14132" lon="0.50776">
        <ele>96.200012207031</ele>
        <time>2017-02-13T11:13:26Z</time>
      </trkpt>
      <trkpt lat="45.14127" lon="0.50771">
        <ele>95</ele>
        <time>2017-02-13T11:13:27Z</time>
      </trkpt>
      <trkpt lat="45.14109" lon="0.50753">
        <ele>94.400024414062</ele>
        <time>2017-02-13T11:13:31Z</time>
      </trkpt>
      <trkpt lat="45.14098" lon="0.5074">
        <ele>95</ele>
        <time>2017-02-13T11:13:35Z</time>
      </trkpt>
      <trkpt lat="45.14091" lon="0.50724">
        <ele>94.799987792969</ele>
        <time>2017-02-13T11:13:41Z</time>
      </trkpt>
      <trkpt lat="45.14081" lon="0.50715">
        <ele>94.799987792969</ele>
        <time>2017-02-13T11:16:28Z</time>
      </trkpt>
      <trkpt lat="45.1407" lon="0.5072">
        <ele>94.400024414062</ele>
        <time>2017-02-13T11:16:33Z</time>
      </trkpt>
      <trkpt lat="45.14061" lon="0.50712">
        <ele>94.200012207031</ele>
        <time>2017-02-13T11:16:36Z</time>
      </trkpt>
      <trkpt lat="45.14056" lon="0.50705">
        <ele>94.599975585938</ele>
        <time>2017-02-13T11:16:38Z</time>
      </trkpt>
      <trkpt lat="45.14049" lon="0.50694">
        <ele>96.400024414062</ele>
        <time>2017-02-13T11:16:41Z</time>
      </trkpt>
      <trkpt lat="45.14034" lon="0.50672">
        <ele>96.799987792969</ele>
        <time>2017-02-13T11:16:47Z</time>
      </trkpt>
      <trkpt lat="45.1403" lon="0.50667">
        <ele>97.400024414062</ele>
        <time>2017-02-13T11:16:50Z</time>
      </trkpt>
      <trkpt lat="45.14025" lon="0.50659">
        <ele>98.200012207031</ele>
        <time>2017-02-13T11:16:53Z</time>
      </trkpt>
      <trkpt lat="45.14024" lon="0.50657">
        <ele>98.599975585938</ele>
        <time>2017-02-13T11:16:54Z</time>
      </trkpt>
      <trkpt lat="45.14019" lon="0.50651">
        <ele>99.599975585938</ele>
        <time>2017-02-13T11:16:57Z</time>
      </trkpt>
      <trkpt lat="45.14017" lon="0.50649">
        <ele>99.799987792969</ele>
        <time>2017-02-13T11:16:58Z</time>
      </trkpt>
      <trkpt lat="45.14016" lon="0.50647">
        <ele>100</ele>
        <time>2017-02-13T11:16:59Z</time>
      </trkpt>
      <trkpt lat="45.14012" lon="0.50641">
        <ele>100.79998779297</ele>
        <time>2017-02-13T11:17:02Z</time>
      </trkpt>
      <trkpt lat="45.14008" lon="0.50635">
        <ele>101.59997558594</ele>
        <time>2017-02-13T11:17:05Z</time>
      </trkpt>
      <trkpt lat="45.14006" lon="0.50633">
        <ele>102</ele>
        <time>2017-02-13T11:17:06Z</time>
      </trkpt>
      <trkpt lat="45.14003" lon="0.50626">
        <ele>103.40002441406</ele>
        <time>2017-02-13T11:17:09Z</time>
      </trkpt>
      <trkpt lat="45.13998" lon="0.50621">
        <ele>104.20001220703</ele>
        <time>2017-02-13T11:17:12Z</time>
      </trkpt>
      <trkpt lat="45.13992" lon="0.50615">
        <ele>104.59997558594</ele>
        <time>2017-02-13T11:17:15Z</time>
      </trkpt>
      <trkpt lat="45.13983" lon="0.50606">
        <ele>105.20001220703</ele>
        <time>2017-02-13T11:17:19Z</time>
      </trkpt>
      <trkpt lat="45.13978" lon="0.506">
        <ele>105.59997558594</ele>
        <time>2017-02-13T11:17:21Z</time>
      </trkpt>
      <trkpt lat="45.1397" lon="0.50588">
        <ele>106.79998779297</ele>
        <time>2017-02-13T11:17:25Z</time>
      </trkpt>
      <trkpt lat="45.13968" lon="0.50585">
        <ele>107.40002441406</ele>
        <time>2017-02-13T11:17:26Z</time>
      </trkpt>
      <trkpt lat="45.13966" lon="0.50583">
        <ele>108</ele>
        <time>2017-02-13T11:17:27Z</time>
      </trkpt>
      <trkpt lat="45.13963" lon="0.50579">
        <ele>109.79998779297</ele>
        <time>2017-02-13T11:17:29Z</time>
      </trkpt>
      <trkpt lat="45.13959" lon="0.50571">
        <ele>110.40002441406</ele>
        <time>2017-02-13T11:17:32Z</time>
      </trkpt>
      <trkpt lat="45.13958" lon="0.50565">
        <ele>111</ele>
        <time>2017-02-13T11:17:34Z</time>
      </trkpt>
      <trkpt lat="45.13959" lon="0.50554">
        <ele>111.59997558594</ele>
        <time>2017-02-13T11:17:37Z</time>
      </trkpt>
      <trkpt lat="45.13961" lon="0.50548">
        <ele>112.20001220703</ele>
        <time>2017-02-13T11:17:39Z</time>
      </trkpt>
      <trkpt lat="45.13964" lon="0.50533">
        <ele>113.20001220703</ele>
        <time>2017-02-13T11:17:44Z</time>
      </trkpt>
      <trkpt lat="45.13965" lon="0.5053">
        <ele>113.40002441406</ele>
        <time>2017-02-13T11:17:45Z</time>
      </trkpt>
      <trkpt lat="45.13966" lon="0.50516">
        <ele>114.20001220703</ele>
        <time>2017-02-13T11:17:49Z</time>
      </trkpt>
      <trkpt lat="45.13967" lon="0.50512">
        <ele>114.40002441406</ele>
        <time>2017-02-13T11:17:50Z</time>
      </trkpt>
      <trkpt lat="45.13969" lon="0.50496">
        <ele>114.79998779297</ele>
        <time>2017-02-13T11:17:54Z</time>
      </trkpt>
      <trkpt lat="45.13966" lon="0.50466">
        <ele>115.20001220703</ele>
        <time>2017-02-13T11:18:00Z</time>
      </trkpt>
      <trkpt lat="45.13965" lon="0.50457">
        <ele>115.59997558594</ele>
        <time>2017-02-13T11:18:02Z</time>
      </trkpt>
      <trkpt lat="45.13965" lon="0.50445">
        <ele>116.59997558594</ele>
        <time>2017-02-13T11:18:05Z</time>
      </trkpt>
      <trkpt lat="45.13965" lon="0.50427">
        <ele>117.79998779297</ele>
        <time>2017-02-13T11:18:09Z</time>
      </trkpt>
      <trkpt lat="45.13966" lon="0.50413">
        <ele>118.40002441406</ele>
        <time>2017-02-13T11:18:12Z</time>
      </trkpt>
      <trkpt lat="45.13967" lon="0.50393">
        <ele>119.20001220703</ele>
        <time>2017-02-13T11:18:17Z</time>
      </trkpt>
      <trkpt lat="45.13967" lon="0.50379">
        <ele>119.20001220703</ele>
        <time>2017-02-13T11:18:20Z</time>
      </trkpt>
      <trkpt lat="45.13966" lon="0.50348">
        <ele>120</ele>
        <time>2017-02-13T11:18:27Z</time>
      </trkpt>
      <trkpt lat="45.13966" lon="0.50345">
        <ele>120.20001220703</ele>
        <time>2017-02-13T11:18:28Z</time>
      </trkpt>
      <trkpt lat="45.13966" lon="0.50332">
        <ele>121.40002441406</ele>
        <time>2017-02-13T11:18:32Z</time>
      </trkpt>
      <trkpt lat="45.13967" lon="0.50322">
        <ele>121.79998779297</ele>
        <time>2017-02-13T11:18:35Z</time>
      </trkpt>
      <trkpt lat="45.1397" lon="0.50315">
        <ele>122.79998779297</ele>
        <time>2017-02-13T11:18:37Z</time>
      </trkpt>
      <trkpt lat="45.13973" lon="0.50308">
        <ele>123.79998779297</ele>
        <time>2017-02-13T11:18:39Z</time>
      </trkpt>
      <trkpt lat="45.13979" lon="0.50297">
        <ele>124.79998779297</ele>
        <time>2017-02-13T11:18:42Z</time>
      </trkpt>
      <trkpt lat="45.13981" lon="0.50294">
        <ele>125</ele>
        <time>2017-02-13T11:18:43Z</time>
      </trkpt>
      <trkpt lat="45.13987" lon="0.50283">
        <ele>126.40002441406</ele>
        <time>2017-02-13T11:18:46Z</time>
      </trkpt>
      <trkpt lat="45.13997" lon="0.50265">
        <ele>127.40002441406</ele>
        <time>2017-02-13T11:18:51Z</time>
      </trkpt>
      <trkpt lat="45.13999" lon="0.50261">
        <ele>127.59997558594</ele>
        <time>2017-02-13T11:18:52Z</time>
      </trkpt>
      <trkpt lat="45.14015" lon="0.50237">
        <ele>128.20001220703</ele>
        <time>2017-02-13T11:18:59Z</time>
      </trkpt>
      <trkpt lat="45.1402" lon="0.50226">
        <ele>128.59997558594</ele>
        <time>2017-02-13T11:19:02Z</time>
      </trkpt>
      <trkpt lat="45.14028" lon="0.50211">
        <ele>129.40002441406</ele>
        <time>2017-02-13T11:19:06Z</time>
      </trkpt>
      <trkpt lat="45.14035" lon="0.50201">
        <ele>129.79998779297</ele>
        <time>2017-02-13T11:19:09Z</time>
      </trkpt>
      <trkpt lat="45.14045" lon="0.50183">
        <ele>131</ele>
        <time>2017-02-13T11:19:14Z</time>
      </trkpt>
      <trkpt lat="45.14049" lon="0.50176">
        <ele>131.79998779297</ele>
        <time>2017-02-13T11:19:16Z</time>
      </trkpt>
      <trkpt lat="45.14051" lon="0.50174">
        <ele>132.20001220703</ele>
        <time>2017-02-13T11:19:17Z</time>
      </trkpt>
      <trkpt lat="45.14048" lon="0.50174">
        <ele>133.20001220703</ele>
        <time>2017-02-13T11:19:21Z</time>
      </trkpt>
      <trkpt lat="45.14044" lon="0.5017">
        <ele>133.59997558594</ele>
        <time>2017-02-13T11:19:23Z</time>
      </trkpt>
      <trkpt lat="45.14038" lon="0.50157">
        <ele>133.79998779297</ele>
        <time>2017-02-13T11:19:27Z</time>
      </trkpt>
      <trkpt lat="45.14036" lon="0.50151">
        <ele>133.79998779297</ele>
        <time>2017-02-13T11:19:28Z</time>
      </trkpt>
      <trkpt lat="45.14019" lon="0.50104">
        <ele>132.40002441406</ele>
        <time>2017-02-13T11:19:36Z</time>
      </trkpt>
      <trkpt lat="45.14018" lon="0.50099">
        <ele>132.20001220703</ele>
        <time>2017-02-13T11:19:37Z</time>
      </trkpt>
      <trkpt lat="45.14012" lon="0.50089">
        <ele>131.79998779297</ele>
        <time>2017-02-13T11:19:40Z</time>
      </trkpt>
      <trkpt lat="45.14003" lon="0.50089">
        <ele>131.40002441406</ele>
        <time>2017-02-13T11:19:43Z</time>
      </trkpt>
      <trkpt lat="45.14002" lon="0.5009">
        <ele>131</ele>
        <time>2017-02-13T11:19:44Z</time>
      </trkpt>
      <trkpt lat="45.14" lon="0.5009">
        <ele>128.20001220703</ele>
        <time>2017-02-13T11:20:08Z</time>
      </trkpt>
      <trkpt lat="45.13986" lon="0.50091">
        <ele>128.40002441406</ele>
        <time>2017-02-13T11:20:12Z</time>
      </trkpt>
      <trkpt lat="45.13958" lon="0.50096">
        <ele>126.79998779297</ele>
        <time>2017-02-13T11:20:17Z</time>
      </trkpt>
      <trkpt lat="45.1394" lon="0.50098">
        <ele>125.59997558594</ele>
        <time>2017-02-13T11:20:20Z</time>
      </trkpt>
      <trkpt lat="45.13921" lon="0.50097">
        <ele>124.20001220703</ele>
        <time>2017-02-13T11:20:23Z</time>
      </trkpt>
      <trkpt lat="45.13909" lon="0.50096">
        <ele>123.40002441406</ele>
        <time>2017-02-13T11:20:25Z</time>
      </trkpt>
      <trkpt lat="45.13904" lon="0.50096">
        <ele>123</ele>
        <time>2017-02-13T11:20:26Z</time>
      </trkpt>
      <trkpt lat="45.139" lon="0.50095">
        <ele>122.59997558594</ele>
        <time>2017-02-13T11:20:27Z</time>
      </trkpt>
      <trkpt lat="45.13888" lon="0.5009">
        <ele>121.79998779297</ele>
        <time>2017-02-13T11:20:30Z</time>
      </trkpt>
      <trkpt lat="45.13881" lon="0.50083">
        <ele>121.59997558594</ele>
        <time>2017-02-13T11:20:32Z</time>
      </trkpt>
      <trkpt lat="45.13855" lon="0.50058">
        <ele>121.40002441406</ele>
        <time>2017-02-13T11:20:39Z</time>
      </trkpt>
      <trkpt lat="45.13844" lon="0.50045">
        <ele>121.40002441406</ele>
        <time>2017-02-13T11:20:42Z</time>
      </trkpt>
      <trkpt lat="45.13836" lon="0.50029">
        <ele>121.20001220703</ele>
        <time>2017-02-13T11:20:45Z</time>
      </trkpt>
      <trkpt lat="45.13827" lon="0.50002">
        <ele>121.79998779297</ele>
        <time>2017-02-13T11:20:50Z</time>
      </trkpt>
      <trkpt lat="45.1382" lon="0.49983">
        <ele>122.79998779297</ele>
        <time>2017-02-13T11:20:54Z</time>
      </trkpt>
      <trkpt lat="45.13815" lon="0.49974">
        <ele>123.20001220703</ele>
        <time>2017-02-13T11:20:56Z</time>
      </trkpt>
      <trkpt lat="45.1381" lon="0.49957">
        <ele>123.59997558594</ele>
        <time>2017-02-13T11:21:00Z</time>
      </trkpt>
      <trkpt lat="45.13811" lon="0.49955">
        <ele>123.79998779297</ele>
        <time>2017-02-13T11:21:01Z</time>
      </trkpt>
      <trkpt lat="45.13815" lon="0.49951">
        <ele>123.79998779297</ele>
        <time>2017-02-13T11:21:04Z</time>
      </trkpt>
      <trkpt lat="45.13818" lon="0.49948">
        <ele>124.79998779297</ele>
        <time>2017-02-13T11:21:06Z</time>
      </trkpt>
      <trkpt lat="45.13819" lon="0.49946">
        <ele>125.20001220703</ele>
        <time>2017-02-13T11:21:07Z</time>
      </trkpt>
      <trkpt lat="45.13821" lon="0.49944">
        <ele>125.40002441406</ele>
        <time>2017-02-13T11:21:08Z</time>
      </trkpt>
      <trkpt lat="45.13824" lon="0.4994">
        <ele>126.40002441406</ele>
        <time>2017-02-13T11:21:10Z</time>
      </trkpt>
      <trkpt lat="45.1383" lon="0.49934">
        <ele>127.40002441406</ele>
        <time>2017-02-13T11:21:13Z</time>
      </trkpt>
      <trkpt lat="45.13835" lon="0.49928">
        <ele>127.59997558594</ele>
        <time>2017-02-13T11:21:16Z</time>
      </trkpt>
      <trkpt lat="45.13843" lon="0.49915">
        <ele>128.59997558594</ele>
        <time>2017-02-13T11:21:21Z</time>
      </trkpt>
      <trkpt lat="45.13845" lon="0.49913">
        <ele>129</ele>
        <time>2017-02-13T11:21:22Z</time>
      </trkpt>
      <trkpt lat="45.13849" lon="0.49909">
        <ele>129.59997558594</ele>
        <time>2017-02-13T11:21:24Z</time>
      </trkpt>
      <trkpt lat="45.13861" lon="0.499">
        <ele>130.79998779297</ele>
        <time>2017-02-13T11:21:30Z</time>
      </trkpt>
      <trkpt lat="45.13867" lon="0.49895">
        <ele>131.79998779297</ele>
        <time>2017-02-13T11:21:33Z</time>
      </trkpt>
      <trkpt lat="45.13875" lon="0.49891">
        <ele>132.79998779297</ele>
        <time>2017-02-13T11:21:37Z</time>
      </trkpt>
      <trkpt lat="45.13878" lon="0.49889">
        <ele>133</ele>
        <time>2017-02-13T11:21:39Z</time>
      </trkpt>
      <trkpt lat="45.13884" lon="0.49885">
        <ele>134.20001220703</ele>
        <time>2017-02-13T11:21:43Z</time>
      </trkpt>
      <trkpt lat="45.13888" lon="0.49884">
        <ele>134.59997558594</ele>
        <time>2017-02-13T11:21:45Z</time>
      </trkpt>
      <trkpt lat="45.13892" lon="0.49881">
        <ele>135.20001220703</ele>
        <time>2017-02-13T11:21:48Z</time>
      </trkpt>
      <trkpt lat="45.13897" lon="0.49877">
        <ele>135.40002441406</ele>
        <time>2017-02-13T11:21:51Z</time>
      </trkpt>
      <trkpt lat="45.13901" lon="0.49874">
        <ele>136.40002441406</ele>
        <time>2017-02-13T11:21:53Z</time>
      </trkpt>
      <trkpt lat="45.13908" lon="0.49865">
        <ele>137.59997558594</ele>
        <time>2017-02-13T11:21:57Z</time>
      </trkpt>
      <trkpt lat="45.13915" lon="0.49857">
        <ele>138.79998779297</ele>
        <time>2017-02-13T11:22:01Z</time>
      </trkpt>
      <trkpt lat="45.13918" lon="0.49853">
        <ele>139</ele>
        <time>2017-02-13T11:22:03Z</time>
      </trkpt>
      <trkpt lat="45.13928" lon="0.49842">
        <ele>139.20001220703</ele>
        <time>2017-02-13T11:22:09Z</time>
      </trkpt>
      <trkpt lat="45.13944" lon="0.49833">
        <ele>140</ele>
        <time>2017-02-13T11:22:16Z</time>
      </trkpt>
      <trkpt lat="45.13948" lon="0.49833">
        <ele>141</ele>
        <time>2017-02-13T11:22:18Z</time>
      </trkpt>
      <trkpt lat="45.13954" lon="0.49834">
        <ele>142.20001220703</ele>
        <time>2017-02-13T11:22:21Z</time>
      </trkpt>
      <trkpt lat="45.13958" lon="0.49835">
        <ele>142.59997558594</ele>
        <time>2017-02-13T11:22:23Z</time>
      </trkpt>
      <trkpt lat="45.13971" lon="0.49839">
        <ele>143</ele>
        <time>2017-02-13T11:22:30Z</time>
      </trkpt>
      <trkpt lat="45.13974" lon="0.4984">
        <ele>143.40002441406</ele>
        <time>2017-02-13T11:22:32Z</time>
      </trkpt>
      <trkpt lat="45.13977" lon="0.49841">
        <ele>143.79998779297</ele>
        <time>2017-02-13T11:22:34Z</time>
      </trkpt>
      <trkpt lat="45.13977" lon="0.49844">
        <ele>144</ele>
        <time>2017-02-13T11:22:35Z</time>
      </trkpt>
      <trkpt lat="45.13979" lon="0.49854">
        <ele>144.20001220703</ele>
        <time>2017-02-13T11:22:38Z</time>
      </trkpt>
      <trkpt lat="45.13981" lon="0.49866">
        <ele>144</ele>
        <time>2017-02-13T11:22:41Z</time>
      </trkpt>
      <trkpt lat="45.13989" lon="0.49885">
        <ele>143.59997558594</ele>
        <time>2017-02-13T11:22:46Z</time>
      </trkpt>
      <trkpt lat="45.14009" lon="0.49905">
        <ele>143.40002441406</ele>
        <time>2017-02-13T11:22:53Z</time>
      </trkpt>
      <trkpt lat="45.14026" lon="0.49907">
        <ele>142.40002441406</ele>
        <time>2017-02-13T11:22:58Z</time>
      </trkpt>
      <trkpt lat="45.14044" lon="0.49902">
        <ele>144.79998779297</ele>
        <time>2017-02-13T11:23:04Z</time>
      </trkpt>
      <trkpt lat="45.14049" lon="0.49899">
        <ele>146</ele>
        <time>2017-02-13T11:23:06Z</time>
      </trkpt>
      <trkpt lat="45.14055" lon="0.49901">
        <ele>146.20001220703</ele>
        <time>2017-02-13T11:23:08Z</time>
      </trkpt>
      <trkpt lat="45.14061" lon="0.49905">
        <ele>146.40002441406</ele>
        <time>2017-02-13T11:23:10Z</time>
      </trkpt>
      <trkpt lat="45.14068" lon="0.49915">
        <ele>146.40002441406</ele>
        <time>2017-02-13T11:23:13Z</time>
      </trkpt>
      <trkpt lat="45.14074" lon="0.49923">
        <ele>146.79998779297</ele>
        <time>2017-02-13T11:23:15Z</time>
      </trkpt>
      <trkpt lat="45.14077" lon="0.49926">
        <ele>147</ele>
        <time>2017-02-13T11:23:16Z</time>
      </trkpt>
      <trkpt lat="45.14096" lon="0.49951">
        <ele>148</ele>
        <time>2017-02-13T11:23:23Z</time>
      </trkpt>
      <trkpt lat="45.14099" lon="0.49955">
        <ele>148</ele>
        <time>2017-02-13T11:23:24Z</time>
      </trkpt>
      <trkpt lat="45.14117" lon="0.49978">
        <ele>147.79998779297</ele>
        <time>2017-02-13T11:23:31Z</time>
      </trkpt>
      <trkpt lat="45.14123" lon="0.49986">
        <ele>147.40002441406</ele>
        <time>2017-02-13T11:23:49Z</time>
      </trkpt>
      <trkpt lat="45.14121" lon="0.4999">
        <ele>147.40002441406</ele>
        <time>2017-02-13T11:23:51Z</time>
      </trkpt>
      <trkpt lat="45.14123" lon="0.49987">
        <ele>146.79998779297</ele>
        <time>2017-02-13T11:23:58Z</time>
      </trkpt>
      <trkpt lat="45.14124" lon="0.49984">
        <ele>146.79998779297</ele>
        <time>2017-02-13T11:23:59Z</time>
      </trkpt>
      <trkpt lat="45.1413" lon="0.49968">
        <ele>147.40002441406</ele>
        <time>2017-02-13T11:24:03Z</time>
      </trkpt>
      <trkpt lat="45.14135" lon="0.4996">
        <ele>147.79998779297</ele>
        <time>2017-02-13T11:24:05Z</time>
      </trkpt>
      <trkpt lat="45.1414" lon="0.49948">
        <ele>148.79998779297</ele>
        <time>2017-02-13T11:24:08Z</time>
      </trkpt>
      <trkpt lat="45.14144" lon="0.4994">
        <ele>149.20001220703</ele>
        <time>2017-02-13T11:24:10Z</time>
      </trkpt>
      <trkpt lat="45.1415" lon="0.49926">
        <ele>150</ele>
        <time>2017-02-13T11:24:14Z</time>
      </trkpt>
      <trkpt lat="45.14152" lon="0.49922">
        <ele>150.40002441406</ele>
        <time>2017-02-13T11:24:15Z</time>
      </trkpt>
      <trkpt lat="45.14155" lon="0.49913">
        <ele>151</ele>
        <time>2017-02-13T11:24:17Z</time>
      </trkpt>
      <trkpt lat="45.14166" lon="0.49892">
        <ele>151.59997558594</ele>
        <time>2017-02-13T11:24:23Z</time>
      </trkpt>
      <trkpt lat="45.14173" lon="0.4988">
        <ele>152</ele>
        <time>2017-02-13T11:24:27Z</time>
      </trkpt>
      <trkpt lat="45.14175" lon="0.49876">
        <ele>152.20001220703</ele>
        <time>2017-02-13T11:24:29Z</time>
      </trkpt>
      <trkpt lat="45.14178" lon="0.49869">
        <ele>152.20001220703</ele>
        <time>2017-02-13T11:24:38Z</time>
      </trkpt>
      <trkpt lat="45.14179" lon="0.49866">
        <ele>152.20001220703</ele>
        <time>2017-02-13T11:24:39Z</time>
      </trkpt>
      <trkpt lat="45.1419" lon="0.49844">
        <ele>151.79998779297</ele>
        <time>2017-02-13T11:24:46Z</time>
      </trkpt>
      <trkpt lat="45.14201" lon="0.49824">
        <ele>151.59997558594</ele>
        <time>2017-02-13T11:24:51Z</time>
      </trkpt>
      <trkpt lat="45.14213" lon="0.49801">
        <ele>150.79998779297</ele>
        <time>2017-02-13T11:24:55Z</time>
      </trkpt>
      <trkpt lat="45.14215" lon="0.49795">
        <ele>150.59997558594</ele>
        <time>2017-02-13T11:24:56Z</time>
      </trkpt>
      <trkpt lat="45.1422" lon="0.49783">
        <ele>150.40002441406</ele>
        <time>2017-02-13T11:24:58Z</time>
      </trkpt>
      <trkpt lat="45.14223" lon="0.49772">
        <ele>150.20001220703</ele>
        <time>2017-02-13T11:25:00Z</time>
      </trkpt>
      <trkpt lat="45.14226" lon="0.49767">
        <ele>150.40002441406</ele>
        <time>2017-02-13T11:25:01Z</time>
      </trkpt>
      <trkpt lat="45.1423" lon="0.49747">
        <ele>152.40002441406</ele>
        <time>2017-02-13T11:25:05Z</time>
      </trkpt>
      <trkpt lat="45.14233" lon="0.49737">
        <ele>153.79998779297</ele>
        <time>2017-02-13T11:25:07Z</time>
      </trkpt>
      <trkpt lat="45.14237" lon="0.49728">
        <ele>154.79998779297</ele>
        <time>2017-02-13T11:25:09Z</time>
      </trkpt>
      <trkpt lat="45.14247" lon="0.49706">
        <ele>155</ele>
        <time>2017-02-13T11:25:14Z</time>
      </trkpt>
      <trkpt lat="45.1426" lon="0.49682">
        <ele>154</ele>
        <time>2017-02-13T11:25:18Z</time>
      </trkpt>
      <trkpt lat="45.14263" lon="0.49676">
        <ele>153.79998779297</ele>
        <time>2017-02-13T11:25:19Z</time>
      </trkpt>
      <trkpt lat="45.14276" lon="0.49657">
        <ele>153.59997558594</ele>
        <time>2017-02-13T11:25:22Z</time>
      </trkpt>
      <trkpt lat="45.14288" lon="0.49638">
        <ele>152.79998779297</ele>
        <time>2017-02-13T11:25:25Z</time>
      </trkpt>
      <trkpt lat="45.14303" lon="0.49621">
        <ele>151.79998779297</ele>
        <time>2017-02-13T11:25:28Z</time>
      </trkpt>
      <trkpt lat="45.14308" lon="0.49617">
        <ele>151.59997558594</ele>
        <time>2017-02-13T11:25:29Z</time>
      </trkpt>
      <trkpt lat="45.14319" lon="0.49614">
        <ele>151.59997558594</ele>
        <time>2017-02-13T11:25:31Z</time>
      </trkpt>
      <trkpt lat="45.14328" lon="0.49609">
        <ele>151.59997558594</ele>
        <time>2017-02-13T11:25:33Z</time>
      </trkpt>
      <trkpt lat="45.14342" lon="0.49599">
        <ele>152.20001220703</ele>
        <time>2017-02-13T11:25:36Z</time>
      </trkpt>
      <trkpt lat="45.14347" lon="0.49595">
        <ele>152.59997558594</ele>
        <time>2017-02-13T11:25:37Z</time>
      </trkpt>
      <trkpt lat="45.14351" lon="0.4959">
        <ele>153</ele>
        <time>2017-02-13T11:25:38Z</time>
      </trkpt>
      <trkpt lat="45.1436" lon="0.49579">
        <ele>154.40002441406</ele>
        <time>2017-02-13T11:25:41Z</time>
      </trkpt>
      <trkpt lat="45.14366" lon="0.49568">
        <ele>156</ele>
        <time>2017-02-13T11:25:44Z</time>
      </trkpt>
      <trkpt lat="45.14368" lon="0.49564">
        <ele>156.59997558594</ele>
        <time>2017-02-13T11:25:45Z</time>
      </trkpt>
      <trkpt lat="45.14369" lon="0.49561">
        <ele>157</ele>
        <time>2017-02-13T11:25:46Z</time>
      </trkpt>
      <trkpt lat="45.14379" lon="0.49552">
        <ele>158.20001220703</ele>
        <time>2017-02-13T11:25:50Z</time>
      </trkpt>
      <trkpt lat="45.14399" lon="0.49541">
        <ele>158.79998779297</ele>
        <time>2017-02-13T11:25:56Z</time>
      </trkpt>
      <trkpt lat="45.14421" lon="0.49529">
        <ele>158.59997558594</ele>
        <time>2017-02-13T11:26:02Z</time>
      </trkpt>
      <trkpt lat="45.14424" lon="0.49531">
        <ele>158.59997558594</ele>
        <time>2017-02-13T11:26:03Z</time>
      </trkpt>
      <trkpt lat="45.14428" lon="0.4954">
        <ele>158.59997558594</ele>
        <time>2017-02-13T11:26:05Z</time>
      </trkpt>
      <trkpt lat="45.14434" lon="0.49558">
        <ele>157.79998779297</ele>
        <time>2017-02-13T11:26:08Z</time>
      </trkpt>
      <trkpt lat="45.14438" lon="0.49576">
        <ele>157</ele>
        <time>2017-02-13T11:26:10Z</time>
      </trkpt>
      <trkpt lat="45.14445" lon="0.49608">
        <ele>155.59997558594</ele>
        <time>2017-02-13T11:26:13Z</time>
      </trkpt>
      <trkpt lat="45.14452" lon="0.49631">
        <ele>154.40002441406</ele>
        <time>2017-02-13T11:26:15Z</time>
      </trkpt>
      <trkpt lat="45.14459" lon="0.49654">
        <ele>152.40002441406</ele>
        <time>2017-02-13T11:26:17Z</time>
      </trkpt>
      <trkpt lat="45.14467" lon="0.49679">
        <ele>151</ele>
        <time>2017-02-13T11:26:19Z</time>
      </trkpt>
      <trkpt lat="45.14476" lon="0.49704">
        <ele>149.59997558594</ele>
        <time>2017-02-13T11:26:21Z</time>
      </trkpt>
      <trkpt lat="45.14486" lon="0.49729">
        <ele>148.40002441406</ele>
        <time>2017-02-13T11:26:23Z</time>
      </trkpt>
      <trkpt lat="45.14499" lon="0.49752">
        <ele>147</ele>
        <time>2017-02-13T11:26:25Z</time>
      </trkpt>
      <trkpt lat="45.14506" lon="0.49763">
        <ele>145.79998779297</ele>
        <time>2017-02-13T11:26:26Z</time>
      </trkpt>
      <trkpt lat="45.14513" lon="0.49773">
        <ele>144.40002441406</ele>
        <time>2017-02-13T11:26:27Z</time>
      </trkpt>
      <trkpt lat="45.14519" lon="0.49783">
        <ele>143.20001220703</ele>
        <time>2017-02-13T11:26:28Z</time>
      </trkpt>
      <trkpt lat="45.14525" lon="0.49793">
        <ele>142</ele>
        <time>2017-02-13T11:26:29Z</time>
      </trkpt>
      <trkpt lat="45.14532" lon="0.49808">
        <ele>140.20001220703</ele>
        <time>2017-02-13T11:26:31Z</time>
      </trkpt>
      <trkpt lat="45.14538" lon="0.49819">
        <ele>139.20001220703</ele>
        <time>2017-02-13T11:26:34Z</time>
      </trkpt>
      <trkpt lat="45.14542" lon="0.49823">
        <ele>139</ele>
        <time>2017-02-13T11:26:38Z</time>
      </trkpt>
      <trkpt lat="45.14545" lon="0.49819">
        <ele>139</ele>
        <time>2017-02-13T11:26:39Z</time>
      </trkpt>
      <trkpt lat="45.14558" lon="0.49808">
        <ele>137.79998779297</ele>
        <time>2017-02-13T11:26:42Z</time>
      </trkpt>
      <trkpt lat="45.14564" lon="0.49802">
        <ele>137.40002441406</ele>
        <time>2017-02-13T11:26:43Z</time>
      </trkpt>
      <trkpt lat="45.14575" lon="0.49775">
        <ele>137</ele>
        <time>2017-02-13T11:26:46Z</time>
      </trkpt>
      <trkpt lat="45.14575" lon="0.49764">
        <ele>136.79998779297</ele>
        <time>2017-02-13T11:26:47Z</time>
      </trkpt>
      <trkpt lat="45.14576" lon="0.49739">
        <ele>136</ele>
        <time>2017-02-13T11:26:49Z</time>
      </trkpt>
      <trkpt lat="45.14577" lon="0.49725">
        <ele>135.40002441406</ele>
        <time>2017-02-13T11:26:50Z</time>
      </trkpt>
      <trkpt lat="45.14579" lon="0.49688">
        <ele>134</ele>
        <time>2017-02-13T11:26:53Z</time>
      </trkpt>
      <trkpt lat="45.1458" lon="0.49665">
        <ele>132.59997558594</ele>
        <time>2017-02-13T11:26:55Z</time>
      </trkpt>
      <trkpt lat="45.14582" lon="0.49647">
        <ele>131</ele>
        <time>2017-02-13T11:26:57Z</time>
      </trkpt>
      <trkpt lat="45.14589" lon="0.49638">
        <ele>130.40002441406</ele>
        <time>2017-02-13T11:26:59Z</time>
      </trkpt>
      <trkpt lat="45.14601" lon="0.49633">
        <ele>130.20001220703</ele>
        <time>2017-02-13T11:27:01Z</time>
      </trkpt>
      <trkpt lat="45.14606" lon="0.49631">
        <ele>130.20001220703</ele>
        <time>2017-02-13T11:27:02Z</time>
      </trkpt>
      <trkpt lat="45.14626" lon="0.4962">
        <ele>131.79998779297</ele>
        <time>2017-02-13T11:27:07Z</time>
      </trkpt>
      <trkpt lat="45.14629" lon="0.49617">
        <ele>132.20001220703</ele>
        <time>2017-02-13T11:27:08Z</time>
      </trkpt>
      <trkpt lat="45.1464" lon="0.49605">
        <ele>133.40002441406</ele>
        <time>2017-02-13T11:27:12Z</time>
      </trkpt>
      <trkpt lat="45.14645" lon="0.49599">
        <ele>133.79998779297</ele>
        <time>2017-02-13T11:27:14Z</time>
      </trkpt>
      <trkpt lat="45.14649" lon="0.49593">
        <ele>134.59997558594</ele>
        <time>2017-02-13T11:27:16Z</time>
      </trkpt>
      <trkpt lat="45.14656" lon="0.49587">
        <ele>135.79998779297</ele>
        <time>2017-02-13T11:27:19Z</time>
      </trkpt>
      <trkpt lat="45.14666" lon="0.4958">
        <ele>136.79998779297</ele>
        <time>2017-02-13T11:27:24Z</time>
      </trkpt>
      <trkpt lat="45.1467" lon="0.49581">
        <ele>137.40002441406</ele>
        <time>2017-02-13T11:27:26Z</time>
      </trkpt>
      <trkpt lat="45.14675" lon="0.49586">
        <ele>138</ele>
        <time>2017-02-13T11:27:29Z</time>
      </trkpt>
      <trkpt lat="45.14679" lon="0.49591">
        <ele>138.20001220703</ele>
        <time>2017-02-13T11:27:32Z</time>
      </trkpt>
      <trkpt lat="45.14689" lon="0.49605">
        <ele>138.40002441406</ele>
        <time>2017-02-13T11:27:37Z</time>
      </trkpt>
      <trkpt lat="45.14695" lon="0.49614">
        <ele>139.40002441406</ele>
        <time>2017-02-13T11:27:40Z</time>
      </trkpt>
      <trkpt lat="45.14704" lon="0.4963">
        <ele>140.20001220703</ele>
        <time>2017-02-13T11:27:44Z</time>
      </trkpt>
      <trkpt lat="45.14712" lon="0.4964">
        <ele>140.59997558594</ele>
        <time>2017-02-13T11:27:47Z</time>
      </trkpt>
      <trkpt lat="45.14721" lon="0.49655">
        <ele>141</ele>
        <time>2017-02-13T11:27:50Z</time>
      </trkpt>
      <trkpt lat="45.14726" lon="0.49665">
        <ele>141.20001220703</ele>
        <time>2017-02-13T11:27:52Z</time>
      </trkpt>
      <trkpt lat="45.1473" lon="0.49681">
        <ele>141</ele>
        <time>2017-02-13T11:27:54Z</time>
      </trkpt>
      <trkpt lat="45.14737" lon="0.49705">
        <ele>140.20001220703</ele>
        <time>2017-02-13T11:27:57Z</time>
      </trkpt>
      <trkpt lat="45.14746" lon="0.49711">
        <ele>140</ele>
        <time>2017-02-13T11:27:59Z</time>
      </trkpt>
      <trkpt lat="45.1476" lon="0.497">
        <ele>140.40002441406</ele>
        <time>2017-02-13T11:28:02Z</time>
      </trkpt>
      <trkpt lat="45.14779" lon="0.4968">
        <ele>141.40002441406</ele>
        <time>2017-02-13T11:28:06Z</time>
      </trkpt>
      <trkpt lat="45.14784" lon="0.49675">
        <ele>141.79998779297</ele>
        <time>2017-02-13T11:28:07Z</time>
      </trkpt>
      <trkpt lat="45.14797" lon="0.49663">
        <ele>143.20001220703</ele>
        <time>2017-02-13T11:28:10Z</time>
      </trkpt>
      <trkpt lat="45.14801" lon="0.49661">
        <ele>143.79998779297</ele>
        <time>2017-02-13T11:28:11Z</time>
      </trkpt>
      <trkpt lat="45.14811" lon="0.49661">
        <ele>144.59997558594</ele>
        <time>2017-02-13T11:28:13Z</time>
      </trkpt>
      <trkpt lat="45.14816" lon="0.49665">
        <ele>145</ele>
        <time>2017-02-13T11:28:14Z</time>
      </trkpt>
      <trkpt lat="45.1483" lon="0.49684">
        <ele>145.20001220703</ele>
        <time>2017-02-13T11:28:17Z</time>
      </trkpt>
      <trkpt lat="45.14835" lon="0.49692">
        <ele>144.40002441406</ele>
        <time>2017-02-13T11:28:18Z</time>
      </trkpt>
      <trkpt lat="45.14844" lon="0.49706">
        <ele>142.79998779297</ele>
        <time>2017-02-13T11:28:20Z</time>
      </trkpt>
      <trkpt lat="45.14851" lon="0.49708">
        <ele>142</ele>
        <time>2017-02-13T11:28:21Z</time>
      </trkpt>
      <trkpt lat="45.14859" lon="0.49706">
        <ele>141</ele>
        <time>2017-02-13T11:28:22Z</time>
      </trkpt>
      <trkpt lat="45.14868" lon="0.49704">
        <ele>139.79998779297</ele>
        <time>2017-02-13T11:28:23Z</time>
      </trkpt>
      <trkpt lat="45.14878" lon="0.49704">
        <ele>138.79998779297</ele>
        <time>2017-02-13T11:28:24Z</time>
      </trkpt>
      <trkpt lat="45.14897" lon="0.49698">
        <ele>137</ele>
        <time>2017-02-13T11:28:26Z</time>
      </trkpt>
      <trkpt lat="45.14907" lon="0.49692">
        <ele>136.20001220703</ele>
        <time>2017-02-13T11:28:27Z</time>
      </trkpt>
      <trkpt lat="45.14916" lon="0.49682">
        <ele>135.40002441406</ele>
        <time>2017-02-13T11:28:28Z</time>
      </trkpt>
      <trkpt lat="45.14935" lon="0.49666">
        <ele>133.79998779297</ele>
        <time>2017-02-13T11:28:30Z</time>
      </trkpt>
      <trkpt lat="45.14945" lon="0.49663">
        <ele>132.79998779297</ele>
        <time>2017-02-13T11:28:31Z</time>
      </trkpt>
      <trkpt lat="45.14955" lon="0.49662">
        <ele>131.59997558594</ele>
        <time>2017-02-13T11:28:32Z</time>
      </trkpt>
      <trkpt lat="45.14964" lon="0.49665">
        <ele>130.40002441406</ele>
        <time>2017-02-13T11:28:33Z</time>
      </trkpt>
      <trkpt lat="45.14972" lon="0.49668">
        <ele>129.40002441406</ele>
        <time>2017-02-13T11:28:34Z</time>
      </trkpt>
      <trkpt lat="45.1498" lon="0.4967">
        <ele>128.59997558594</ele>
        <time>2017-02-13T11:28:35Z</time>
      </trkpt>
      <trkpt lat="45.14986" lon="0.49673">
        <ele>128</ele>
        <time>2017-02-13T11:28:36Z</time>
      </trkpt>
      <trkpt lat="45.14992" lon="0.49674">
        <ele>127.59997558594</ele>
        <time>2017-02-13T11:28:37Z</time>
      </trkpt>
      <trkpt lat="45.15003" lon="0.49675">
        <ele>127.40002441406</ele>
        <time>2017-02-13T11:28:39Z</time>
      </trkpt>
      <trkpt lat="45.15012" lon="0.49673">
        <ele>127.79998779297</ele>
        <time>2017-02-13T11:28:41Z</time>
      </trkpt>
      <trkpt lat="45.15019" lon="0.49669">
        <ele>129.40002441406</ele>
        <time>2017-02-13T11:28:43Z</time>
      </trkpt>
      <trkpt lat="45.15028" lon="0.49663">
        <ele>130.59997558594</ele>
        <time>2017-02-13T11:28:46Z</time>
      </trkpt>
      <trkpt lat="45.15036" lon="0.49656">
        <ele>131.79998779297</ele>
        <time>2017-02-13T11:28:49Z</time>
      </trkpt>
      <trkpt lat="45.15043" lon="0.49651">
        <ele>132.59997558594</ele>
        <time>2017-02-13T11:28:52Z</time>
      </trkpt>
      <trkpt lat="45.15044" lon="0.49649">
        <ele>133</ele>
        <time>2017-02-13T11:28:53Z</time>
      </trkpt>
      <trkpt lat="45.15047" lon="0.4965">
        <ele>133.79998779297</ele>
        <time>2017-02-13T11:28:55Z</time>
      </trkpt>
      <trkpt lat="45.15048" lon="0.49653">
        <ele>134.20001220703</ele>
        <time>2017-02-13T11:28:56Z</time>
      </trkpt>
      <trkpt lat="45.15051" lon="0.49672">
        <ele>134.40002441406</ele>
        <time>2017-02-13T11:29:00Z</time>
      </trkpt>
      <trkpt lat="45.1505" lon="0.49678">
        <ele>134</ele>
        <time>2017-02-13T11:29:01Z</time>
      </trkpt>
      <trkpt lat="45.15045" lon="0.49693">
        <ele>133.20001220703</ele>
        <time>2017-02-13T11:29:03Z</time>
      </trkpt>
      <trkpt lat="45.15042" lon="0.49702">
        <ele>132.79998779297</ele>
        <time>2017-02-13T11:29:04Z</time>
      </trkpt>
      <trkpt lat="45.15038" lon="0.49719">
        <ele>132</ele>
        <time>2017-02-13T11:29:06Z</time>
      </trkpt>
      <trkpt lat="45.15035" lon="0.49738">
        <ele>131.20001220703</ele>
        <time>2017-02-13T11:29:08Z</time>
      </trkpt>
      <trkpt lat="45.15033" lon="0.49747">
        <ele>130.59997558594</ele>
        <time>2017-02-13T11:29:09Z</time>
      </trkpt>
      <trkpt lat="45.15033" lon="0.49766">
        <ele>129.59997558594</ele>
        <time>2017-02-13T11:29:11Z</time>
      </trkpt>
      <trkpt lat="45.15033" lon="0.49784">
        <ele>128</ele>
        <time>2017-02-13T11:29:13Z</time>
      </trkpt>
      <trkpt lat="45.15034" lon="0.49793">
        <ele>127.40002441406</ele>
        <time>2017-02-13T11:29:14Z</time>
      </trkpt>
      <trkpt lat="45.15036" lon="0.4981">
        <ele>126.79998779297</ele>
        <time>2017-02-13T11:29:16Z</time>
      </trkpt>
      <trkpt lat="45.15041" lon="0.49855">
        <ele>125.79998779297</ele>
        <time>2017-02-13T11:29:21Z</time>
      </trkpt>
      <trkpt lat="45.15044" lon="0.49874">
        <ele>124.59997558594</ele>
        <time>2017-02-13T11:29:23Z</time>
      </trkpt>
      <trkpt lat="45.15048" lon="0.49904">
        <ele>123.20001220703</ele>
        <time>2017-02-13T11:29:26Z</time>
      </trkpt>
      <trkpt lat="45.15051" lon="0.49923">
        <ele>122.20001220703</ele>
        <time>2017-02-13T11:29:28Z</time>
      </trkpt>
      <trkpt lat="45.15054" lon="0.49943">
        <ele>120.20001220703</ele>
        <time>2017-02-13T11:29:30Z</time>
      </trkpt>
      <trkpt lat="45.15058" lon="0.49963">
        <ele>118.79998779297</ele>
        <time>2017-02-13T11:29:32Z</time>
      </trkpt>
      <trkpt lat="45.1506" lon="0.49974">
        <ele>118.40002441406</ele>
        <time>2017-02-13T11:29:33Z</time>
      </trkpt>
      <trkpt lat="45.15061" lon="0.49984">
        <ele>117.79998779297</ele>
        <time>2017-02-13T11:29:34Z</time>
      </trkpt>
      <trkpt lat="45.15067" lon="0.50018">
        <ele>116.59997558594</ele>
        <time>2017-02-13T11:29:37Z</time>
      </trkpt>
      <trkpt lat="45.15069" lon="0.50029">
        <ele>116</ele>
        <time>2017-02-13T11:29:38Z</time>
      </trkpt>
      <trkpt lat="45.15071" lon="0.50041">
        <ele>115.40002441406</ele>
        <time>2017-02-13T11:29:39Z</time>
      </trkpt>
      <trkpt lat="45.15073" lon="0.50066">
        <ele>114.40002441406</ele>
        <time>2017-02-13T11:29:41Z</time>
      </trkpt>
      <trkpt lat="45.1507" lon="0.50078">
        <ele>113.79998779297</ele>
        <time>2017-02-13T11:29:42Z</time>
      </trkpt>
      <trkpt lat="45.15066" lon="0.5009">
        <ele>113</ele>
        <time>2017-02-13T11:29:43Z</time>
      </trkpt>
      <trkpt lat="45.1506" lon="0.50113">
        <ele>111.59997558594</ele>
        <time>2017-02-13T11:29:45Z</time>
      </trkpt>
      <trkpt lat="45.15055" lon="0.50136">
        <ele>110</ele>
        <time>2017-02-13T11:29:47Z</time>
      </trkpt>
      <trkpt lat="45.15052" lon="0.5016">
        <ele>108.20001220703</ele>
        <time>2017-02-13T11:29:49Z</time>
      </trkpt>
      <trkpt lat="45.15051" lon="0.50172">
        <ele>107.59997558594</ele>
        <time>2017-02-13T11:29:50Z</time>
      </trkpt>
      <trkpt lat="45.1505" lon="0.50184">
        <ele>107</ele>
        <time>2017-02-13T11:29:51Z</time>
      </trkpt>
      <trkpt lat="45.15042" lon="0.50218">
        <ele>106</ele>
        <time>2017-02-13T11:29:54Z</time>
      </trkpt>
      <trkpt lat="45.15039" lon="0.50229">
        <ele>106</ele>
        <time>2017-02-13T11:29:55Z</time>
      </trkpt>
      <trkpt lat="45.15017" lon="0.50261">
        <ele>105.79998779297</ele>
        <time>2017-02-13T11:29:59Z</time>
      </trkpt>
      <trkpt lat="45.1501" lon="0.50268">
        <ele>106</ele>
        <time>2017-02-13T11:30:00Z</time>
      </trkpt>
      <trkpt lat="45.15002" lon="0.50273">
        <ele>106</ele>
        <time>2017-02-13T11:30:01Z</time>
      </trkpt>
      <trkpt lat="45.14978" lon="0.50287">
        <ele>107.20001220703</ele>
        <time>2017-02-13T11:30:04Z</time>
      </trkpt>
      <trkpt lat="45.14922" lon="0.50321">
        <ele>106.59997558594</ele>
        <time>2017-02-13T11:30:11Z</time>
      </trkpt>
      <trkpt lat="45.14914" lon="0.50326">
        <ele>106.59997558594</ele>
        <time>2017-02-13T11:30:12Z</time>
      </trkpt>
      <trkpt lat="45.14868" lon="0.50354">
        <ele>106</ele>
        <time>2017-02-13T11:30:18Z</time>
      </trkpt>
      <trkpt lat="45.14861" lon="0.50359">
        <ele>105.79998779297</ele>
        <time>2017-02-13T11:30:19Z</time>
      </trkpt>
      <trkpt lat="45.14819" lon="0.50392">
        <ele>105.79998779297</ele>
        <time>2017-02-13T11:30:26Z</time>
      </trkpt>
      <trkpt lat="45.14775" lon="0.50428">
        <ele>106.79998779297</ele>
        <time>2017-02-13T11:30:34Z</time>
      </trkpt>
      <trkpt lat="45.1477" lon="0.50431">
        <ele>107.20001220703</ele>
        <time>2017-02-13T11:30:35Z</time>
      </trkpt>
      <trkpt lat="45.14753" lon="0.50441">
        <ele>108.20001220703</ele>
        <time>2017-02-13T11:30:38Z</time>
      </trkpt>
      <trkpt lat="45.14736" lon="0.50448">
        <ele>108.59997558594</ele>
        <time>2017-02-13T11:30:41Z</time>
      </trkpt>
      <trkpt lat="45.14708" lon="0.50458">
        <ele>109.20001220703</ele>
        <time>2017-02-13T11:30:46Z</time>
      </trkpt>
      <trkpt lat="45.14692" lon="0.50463">
        <ele>109.40002441406</ele>
        <time>2017-02-13T11:30:49Z</time>
      </trkpt>
      <trkpt lat="45.14652" lon="0.50474">
        <ele>109.20001220703</ele>
        <time>2017-02-13T11:30:56Z</time>
      </trkpt>
      <trkpt lat="45.14614" lon="0.50479">
        <ele>109.79998779297</ele>
        <time>2017-02-13T11:31:03Z</time>
      </trkpt>
      <trkpt lat="45.14608" lon="0.50477">
        <ele>110</ele>
        <time>2017-02-13T11:31:04Z</time>
      </trkpt>
      <trkpt lat="45.14592" lon="0.5047">
        <ele>110.40002441406</ele>
        <time>2017-02-13T11:31:07Z</time>
      </trkpt>
      <trkpt lat="45.14587" lon="0.50471">
        <ele>110.40002441406</ele>
        <time>2017-02-13T11:31:08Z</time>
      </trkpt>
      <trkpt lat="45.14569" lon="0.50475">
        <ele>109.59997558594</ele>
        <time>2017-02-13T11:31:11Z</time>
      </trkpt>
      <trkpt lat="45.14563" lon="0.50477">
        <ele>109.20001220703</ele>
        <time>2017-02-13T11:31:12Z</time>
      </trkpt>
      <trkpt lat="45.14551" lon="0.5048">
        <ele>108.40002441406</ele>
        <time>2017-02-13T11:31:14Z</time>
      </trkpt>
      <trkpt lat="45.14538" lon="0.50486">
        <ele>107.79998779297</ele>
        <time>2017-02-13T11:31:16Z</time>
      </trkpt>
      <trkpt lat="45.1452" lon="0.50496">
        <ele>107.20001220703</ele>
        <time>2017-02-13T11:31:19Z</time>
      </trkpt>
      <trkpt lat="45.14491" lon="0.50504">
        <ele>106.79998779297</ele>
        <time>2017-02-13T11:31:23Z</time>
      </trkpt>
      <trkpt lat="45.14483" lon="0.50501">
        <ele>106.79998779297</ele>
        <time>2017-02-13T11:31:24Z</time>
      </trkpt>
      <trkpt lat="45.14475" lon="0.50493">
        <ele>106.59997558594</ele>
        <time>2017-02-13T11:31:25Z</time>
      </trkpt>
      <trkpt lat="45.1447" lon="0.50482">
        <ele>106.40002441406</ele>
        <time>2017-02-13T11:31:26Z</time>
      </trkpt>
      <trkpt lat="45.14466" lon="0.50455">
        <ele>105.40002441406</ele>
        <time>2017-02-13T11:31:28Z</time>
      </trkpt>
      <trkpt lat="45.14464" lon="0.50429">
        <ele>103.59997558594</ele>
        <time>2017-02-13T11:31:30Z</time>
      </trkpt>
      <trkpt lat="45.14458" lon="0.50406">
        <ele>102.79998779297</ele>
        <time>2017-02-13T11:31:32Z</time>
      </trkpt>
      <trkpt lat="45.14453" lon="0.50396">
        <ele>102.59997558594</ele>
        <time>2017-02-13T11:31:33Z</time>
      </trkpt>
      <trkpt lat="45.1444" lon="0.50381">
        <ele>102</ele>
        <time>2017-02-13T11:31:35Z</time>
      </trkpt>
      <trkpt lat="45.14434" lon="0.50374">
        <ele>101.79998779297</ele>
        <time>2017-02-13T11:31:36Z</time>
      </trkpt>
      <trkpt lat="45.14423" lon="0.50361">
        <ele>101.40002441406</ele>
        <time>2017-02-13T11:31:38Z</time>
      </trkpt>
      <trkpt lat="45.14417" lon="0.5036">
        <ele>101.40002441406</ele>
        <time>2017-02-13T11:31:39Z</time>
      </trkpt>
      <trkpt lat="45.14413" lon="0.50361">
        <ele>101.20001220703</ele>
        <time>2017-02-13T11:31:40Z</time>
      </trkpt>
      <trkpt lat="45.14405" lon="0.50373">
        <ele>101.20001220703</ele>
        <time>2017-02-13T11:31:42Z</time>
      </trkpt>
      <trkpt lat="45.14399" lon="0.50386">
        <ele>101</ele>
        <time>2017-02-13T11:31:44Z</time>
      </trkpt>
      <trkpt lat="45.14387" lon="0.50404">
        <ele>100.59997558594</ele>
        <time>2017-02-13T11:31:47Z</time>
      </trkpt>
      <trkpt lat="45.14381" lon="0.5041">
        <ele>100.40002441406</ele>
        <time>2017-02-13T11:31:48Z</time>
      </trkpt>
      <trkpt lat="45.14365" lon="0.50428">
        <ele>100</ele>
        <time>2017-02-13T11:31:51Z</time>
      </trkpt>
      <trkpt lat="45.14331" lon="0.50453">
        <ele>99.400024414062</ele>
        <time>2017-02-13T11:31:57Z</time>
      </trkpt>
      <trkpt lat="45.14312" lon="0.50463">
        <ele>99.200012207031</ele>
        <time>2017-02-13T11:32:00Z</time>
      </trkpt>
      <trkpt lat="45.14307" lon="0.50467">
        <ele>99.200012207031</ele>
        <time>2017-02-13T11:32:01Z</time>
      </trkpt>
      <trkpt lat="45.14297" lon="0.50477">
        <ele>98.799987792969</ele>
        <time>2017-02-13T11:32:03Z</time>
      </trkpt>
      <trkpt lat="45.14288" lon="0.50484">
        <ele>98.200012207031</ele>
        <time>2017-02-13T11:32:05Z</time>
      </trkpt>
      <trkpt lat="45.14278" lon="0.50489">
        <ele>97.599975585938</ele>
        <time>2017-02-13T11:32:07Z</time>
      </trkpt>
      <trkpt lat="45.14254" lon="0.50504">
        <ele>97.599975585938</ele>
        <time>2017-02-13T11:32:12Z</time>
      </trkpt>
      <trkpt lat="45.14248" lon="0.50508">
        <ele>97.799987792969</ele>
        <time>2017-02-13T11:32:13Z</time>
      </trkpt>
      <trkpt lat="45.14237" lon="0.5052">
        <ele>98</ele>
        <time>2017-02-13T11:32:15Z</time>
      </trkpt>
      <trkpt lat="45.14227" lon="0.50537">
        <ele>98</ele>
        <time>2017-02-13T11:32:17Z</time>
      </trkpt>
      <trkpt lat="45.14202" lon="0.50559">
        <ele>97.599975585938</ele>
        <time>2017-02-13T11:32:21Z</time>
      </trkpt>
      <trkpt lat="45.14196" lon="0.50563">
        <ele>97.400024414062</ele>
        <time>2017-02-13T11:32:22Z</time>
      </trkpt>
      <trkpt lat="45.14183" lon="0.50569">
        <ele>97</ele>
        <time>2017-02-13T11:32:24Z</time>
      </trkpt>
      <trkpt lat="45.14178" lon="0.50577">
        <ele>97</ele>
        <time>2017-02-13T11:32:25Z</time>
      </trkpt>
      <trkpt lat="45.14174" lon="0.50585">
        <ele>97</ele>
        <time>2017-02-13T11:32:26Z</time>
      </trkpt>
      <trkpt lat="45.14152" lon="0.50623">
        <ele>96.799987792969</ele>
        <time>2017-02-13T11:32:31Z</time>
      </trkpt>
      <trkpt lat="45.14134" lon="0.50651">
        <ele>96</ele>
        <time>2017-02-13T11:32:35Z</time>
      </trkpt>
      <trkpt lat="45.14131" lon="0.50658">
        <ele>96</ele>
        <time>2017-02-13T11:32:36Z</time>
      </trkpt>
      <trkpt lat="45.14116" lon="0.50675">
        <ele>96</ele>
        <time>2017-02-13T11:32:40Z</time>
      </trkpt>
      <trkpt lat="45.14112" lon="0.50679">
        <ele>96.200012207031</ele>
        <time>2017-02-13T11:32:41Z</time>
      </trkpt>
      <trkpt lat="45.1409" lon="0.50699">
        <ele>96</ele>
        <time>2017-02-13T11:32:47Z</time>
      </trkpt>
      <trkpt lat="45.14092" lon="0.50711">
        <ele>95.599975585938</ele>
        <time>2017-02-13T11:32:49Z</time>
      </trkpt>
      <trkpt lat="45.14096" lon="0.50722">
        <ele>95.200012207031</ele>
        <time>2017-02-13T11:32:51Z</time>
      </trkpt>
      <trkpt lat="45.14098" lon="0.50729">
        <ele>95</ele>
        <time>2017-02-13T11:32:52Z</time>
      </trkpt>
      <trkpt lat="45.14101" lon="0.50734">
        <ele>94.599975585938</ele>
        <time>2017-02-13T11:32:53Z</time>
      </trkpt>
      <trkpt lat="45.14104" lon="0.50739">
        <ele>94.400024414062</ele>
        <time>2017-02-13T11:32:54Z</time>
      </trkpt>
      <trkpt lat="45.14109" lon="0.50753">
        <ele>94.200012207031</ele>
        <time>2017-02-13T11:32:57Z</time>
      </trkpt>
      <trkpt lat="45.14115" lon="0.5076">
        <ele>94.599975585938</ele>
        <time>2017-02-13T11:32:59Z</time>
      </trkpt>
      <trkpt lat="45.14134" lon="0.50777">
        <ele>94.799987792969</ele>
        <time>2017-02-13T11:33:04Z</time>
      </trkpt>
      <trkpt lat="45.14157" lon="0.5079">
        <ele>94.599975585938</ele>
        <time>2017-02-13T11:33:10Z</time>
      </trkpt>
      <trkpt lat="45.14172" lon="0.50796">
        <ele>95.400024414062</ele>
        <time>2017-02-13T11:33:15Z</time>
      </trkpt>
      <trkpt lat="45.14173" lon="0.50805">
        <ele>96</ele>
        <time>2017-02-13T11:33:17Z</time>
      </trkpt>
      <trkpt lat="45.14173" lon="0.50814">
        <ele>96.400024414062</ele>
        <time>2017-02-13T11:33:19Z</time>
      </trkpt>
      <trkpt lat="45.14171" lon="0.50831">
        <ele>97.200012207031</ele>
        <time>2017-02-13T11:33:22Z</time>
      </trkpt>
      <trkpt lat="45.14169" lon="0.50842">
        <ele>97.599975585938</ele>
        <time>2017-02-13T11:33:24Z</time>
      </trkpt>
      <trkpt lat="45.14165" lon="0.50853">
        <ele>98</ele>
        <time>2017-02-13T11:33:26Z</time>
      </trkpt>
      <trkpt lat="45.14163" lon="0.5086">
        <ele>98.200012207031</ele>
        <time>2017-02-13T11:33:27Z</time>
      </trkpt>
      <trkpt lat="45.14156" lon="0.50872">
        <ele>98.400024414062</ele>
        <time>2017-02-13T11:33:29Z</time>
      </trkpt>
      <trkpt lat="45.14139" lon="0.50905">
        <ele>97.200012207031</ele>
        <time>2017-02-13T11:33:34Z</time>
      </trkpt>
      <trkpt lat="45.14129" lon="0.50925">
        <ele>96.400024414062</ele>
        <time>2017-02-13T11:33:37Z</time>
      </trkpt>
      <trkpt lat="45.14125" lon="0.50931">
        <ele>96</ele>
        <time>2017-02-13T11:33:38Z</time>
      </trkpt>
      <trkpt lat="45.14098" lon="0.5097">
        <ele>96</ele>
        <time>2017-02-13T11:33:44Z</time>
      </trkpt>
      <trkpt lat="45.14076" lon="0.51014">
        <ele>96.400024414062</ele>
        <time>2017-02-13T11:33:50Z</time>
      </trkpt>
      <trkpt lat="45.14055" lon="0.51067">
        <ele>96.599975585938</ele>
        <time>2017-02-13T11:33:57Z</time>
      </trkpt>
      <trkpt lat="45.14051" lon="0.51083">
        <ele>96.200012207031</ele>
        <time>2017-02-13T11:33:59Z</time>
      </trkpt>
      <trkpt lat="45.1405" lon="0.51106">
        <ele>96</ele>
        <time>2017-02-13T11:34:02Z</time>
      </trkpt>
      <trkpt lat="45.14044" lon="0.51155">
        <ele>95</ele>
        <time>2017-02-13T11:34:08Z</time>
      </trkpt>
      <trkpt lat="45.14041" lon="0.51162">
        <ele>94.799987792969</ele>
        <time>2017-02-13T11:34:09Z</time>
      </trkpt>
      <trkpt lat="45.14032" lon="0.51191">
        <ele>94.400024414062</ele>
        <time>2017-02-13T11:34:13Z</time>
      </trkpt>
      <trkpt lat="45.14039" lon="0.51214">
        <ele>94.400024414062</ele>
        <time>2017-02-13T11:34:16Z</time>
      </trkpt>
      <trkpt lat="45.14042" lon="0.51222">
        <ele>94.400024414062</ele>
        <time>2017-02-13T11:34:17Z</time>
      </trkpt>
      <trkpt lat="45.14052" lon="0.51247">
        <ele>94.799987792969</ele>
        <time>2017-02-13T11:34:20Z</time>
      </trkpt>
      <trkpt lat="45.1406" lon="0.51263">
        <ele>94.799987792969</ele>
        <time>2017-02-13T11:34:22Z</time>
      </trkpt>
      <trkpt lat="45.14076" lon="0.51301">
        <ele>94</ele>
        <time>2017-02-13T11:34:27Z</time>
      </trkpt>
      <trkpt lat="45.1408" lon="0.51308">
        <ele>93.599975585938</ele>
        <time>2017-02-13T11:34:28Z</time>
      </trkpt>
      <trkpt lat="45.14104" lon="0.51359">
        <ele>93</ele>
        <time>2017-02-13T11:34:35Z</time>
      </trkpt>
      <trkpt lat="45.14107" lon="0.51366">
        <ele>92.799987792969</ele>
        <time>2017-02-13T11:34:36Z</time>
      </trkpt>
      <trkpt lat="45.14113" lon="0.51376">
        <ele>92.400024414062</ele>
        <time>2017-02-13T11:34:38Z</time>
      </trkpt>
      <trkpt lat="45.14116" lon="0.51377">
        <ele>92.200012207031</ele>
        <time>2017-02-13T11:34:39Z</time>
      </trkpt>
      <trkpt lat="45.14126" lon="0.51363">
        <ele>92.599975585938</ele>
        <time>2017-02-13T11:34:42Z</time>
      </trkpt>
      <trkpt lat="45.14129" lon="0.51357">
        <ele>92.799987792969</ele>
        <time>2017-02-13T11:34:43Z</time>
      </trkpt>
      <trkpt lat="45.14134" lon="0.51351">
        <ele>92.799987792969</ele>
        <time>2017-02-13T11:34:44Z</time>
      </trkpt>
      <trkpt lat="45.14145" lon="0.51354">
        <ele>92.799987792969</ele>
        <time>2017-02-13T11:34:46Z</time>
      </trkpt>
      <trkpt lat="45.14154" lon="0.51365">
        <ele>92.200012207031</ele>
        <time>2017-02-13T11:34:48Z</time>
      </trkpt>
      <trkpt lat="45.14159" lon="0.51369">
        <ele>92.200012207031</ele>
        <time>2017-02-13T11:34:49Z</time>
      </trkpt>
      <trkpt lat="45.14164" lon="0.51373">
        <ele>92</ele>
        <time>2017-02-13T11:34:50Z</time>
      </trkpt>
      <trkpt lat="45.14168" lon="0.51379">
        <ele>91.799987792969</ele>
        <time>2017-02-13T11:34:51Z</time>
      </trkpt>
      <trkpt lat="45.14168" lon="0.51387">
        <ele>91.799987792969</ele>
        <time>2017-02-13T11:34:52Z</time>
      </trkpt>
      <trkpt lat="45.14159" lon="0.51404">
        <ele>91.400024414062</ele>
        <time>2017-02-13T11:34:55Z</time>
      </trkpt>
      <trkpt lat="45.14157" lon="0.51407">
        <ele>91.400024414062</ele>
        <time>2017-02-13T11:34:56Z</time>
      </trkpt>
      <trkpt lat="45.14151" lon="0.51418">
        <ele>91.799987792969</ele>
        <time>2017-02-13T11:34:59Z</time>
      </trkpt>
      <trkpt lat="45.14139" lon="0.51448">
        <ele>92.200012207031</ele>
        <time>2017-02-13T11:35:04Z</time>
      </trkpt>
      <trkpt lat="45.14146" lon="0.51465">
        <ele>91</ele>
        <time>2017-02-13T11:35:07Z</time>
      </trkpt>
      <trkpt lat="45.14148" lon="0.51471">
        <ele>90.799987792969</ele>
        <time>2017-02-13T11:35:08Z</time>
      </trkpt>
      <trkpt lat="45.14155" lon="0.51488">
        <ele>90.200012207031</ele>
        <time>2017-02-13T11:35:11Z</time>
      </trkpt>
      <trkpt lat="45.14158" lon="0.51493">
        <ele>89.599975585938</ele>
        <time>2017-02-13T11:35:12Z</time>
      </trkpt>
      <trkpt lat="45.14163" lon="0.51504">
        <ele>88.799987792969</ele>
        <time>2017-02-13T11:35:14Z</time>
      </trkpt>
      <trkpt lat="45.14166" lon="0.51509">
        <ele>88.400024414062</ele>
        <time>2017-02-13T11:35:15Z</time>
      </trkpt>
      <trkpt lat="45.14176" lon="0.5153">
        <ele>88</ele>
        <time>2017-02-13T11:35:20Z</time>
      </trkpt>
      <trkpt lat="45.14184" lon="0.51541">
        <ele>89.799987792969</ele>
        <time>2017-02-13T11:35:23Z</time>
      </trkpt>
      <trkpt lat="45.14188" lon="0.51546">
        <ele>90.200012207031</ele>
        <time>2017-02-13T11:35:24Z</time>
      </trkpt>
      <trkpt lat="45.14203" lon="0.51545">
        <ele>90.799987792969</ele>
        <time>2017-02-13T11:35:27Z</time>
      </trkpt>
      <trkpt lat="45.14207" lon="0.51544">
        <ele>90.799987792969</ele>
        <time>2017-02-13T11:35:28Z</time>
      </trkpt>
      <trkpt lat="45.14213" lon="0.51546">
        <ele>91</ele>
        <time>2017-02-13T11:35:29Z</time>
      </trkpt>
      <trkpt lat="45.14221" lon="0.51554">
        <ele>91.200012207031</ele>
        <time>2017-02-13T11:35:31Z</time>
      </trkpt>
      <trkpt lat="45.14237" lon="0.51569">
        <ele>91.400024414062</ele>
        <time>2017-02-13T11:35:35Z</time>
      </trkpt>
      <trkpt lat="45.1425" lon="0.51579">
        <ele>91.400024414062</ele>
        <time>2017-02-13T11:35:38Z</time>
      </trkpt>
      <trkpt lat="45.14253" lon="0.51583">
        <ele>91.400024414062</ele>
        <time>2017-02-13T11:35:39Z</time>
      </trkpt>
      <trkpt lat="45.14261" lon="0.51602">
        <ele>91.599975585938</ele>
        <time>2017-02-13T11:35:42Z</time>
      </trkpt>
      <trkpt lat="45.14265" lon="0.51615">
        <ele>91.599975585938</ele>
        <time>2017-02-13T11:35:44Z</time>
      </trkpt>
      <trkpt lat="45.14271" lon="0.51643">
        <ele>90.200012207031</ele>
        <time>2017-02-13T11:35:48Z</time>
      </trkpt>
      <trkpt lat="45.14276" lon="0.51662">
        <ele>89.799987792969</ele>
        <time>2017-02-13T11:35:51Z</time>
      </trkpt>
      <trkpt lat="45.14282" lon="0.51687">
        <ele>89</ele>
        <time>2017-02-13T11:35:55Z</time>
      </trkpt>
      <trkpt lat="45.14284" lon="0.51693">
        <ele>88.799987792969</ele>
        <time>2017-02-13T11:35:56Z</time>
      </trkpt>
      <trkpt lat="45.14285" lon="0.517">
        <ele>88.599975585938</ele>
        <time>2017-02-13T11:35:57Z</time>
      </trkpt>
      <trkpt lat="45.14288" lon="0.51723">
        <ele>88</ele>
        <time>2017-02-13T11:36:00Z</time>
      </trkpt>
      <trkpt lat="45.1429" lon="0.51731">
        <ele>87</ele>
        <time>2017-02-13T11:36:01Z</time>
      </trkpt>
      <trkpt lat="45.14294" lon="0.51747">
        <ele>85.799987792969</ele>
        <time>2017-02-13T11:36:03Z</time>
      </trkpt>
      <trkpt lat="45.14298" lon="0.51762">
        <ele>85.400024414062</ele>
        <time>2017-02-13T11:36:05Z</time>
      </trkpt>
      <trkpt lat="45.14307" lon="0.51789">
        <ele>86.200012207031</ele>
        <time>2017-02-13T11:36:09Z</time>
      </trkpt>
      <trkpt lat="45.1431" lon="0.51795">
        <ele>86.799987792969</ele>
        <time>2017-02-13T11:36:10Z</time>
      </trkpt>
      <trkpt lat="45.14314" lon="0.51808">
        <ele>88.400024414062</ele>
        <time>2017-02-13T11:36:12Z</time>
      </trkpt>
      <trkpt lat="45.14318" lon="0.51819">
        <ele>89.200012207031</ele>
        <time>2017-02-13T11:36:14Z</time>
      </trkpt>
      <trkpt lat="45.14325" lon="0.51836">
        <ele>89.400024414062</ele>
        <time>2017-02-13T11:36:17Z</time>
      </trkpt>
      <trkpt lat="45.14332" lon="0.51873">
        <ele>88.799987792969</ele>
        <time>2017-02-13T11:36:23Z</time>
      </trkpt>
      <trkpt lat="45.14337" lon="0.51922">
        <ele>89.200012207031</ele>
        <time>2017-02-13T11:36:30Z</time>
      </trkpt>
      <trkpt lat="45.14347" lon="0.51935">
        <ele>88.599975585938</ele>
        <time>2017-02-13T11:36:33Z</time>
      </trkpt>
      <trkpt lat="45.14357" lon="0.51938">
        <ele>89.200012207031</ele>
        <time>2017-02-13T11:36:35Z</time>
      </trkpt>
      <trkpt lat="45.14362" lon="0.51939">
        <ele>90.799987792969</ele>
        <time>2017-02-13T11:36:36Z</time>
      </trkpt>
      <trkpt lat="45.14367" lon="0.5194">
        <ele>92.200012207031</ele>
        <time>2017-02-13T11:36:37Z</time>
      </trkpt>
      <trkpt lat="45.14371" lon="0.51943">
        <ele>93</ele>
        <time>2017-02-13T11:36:38Z</time>
      </trkpt>
      <trkpt lat="45.14374" lon="0.51944">
        <ele>93.400024414062</ele>
        <time>2017-02-13T11:36:39Z</time>
      </trkpt>
      <trkpt lat="45.14383" lon="0.51947">
        <ele>93.400024414062</ele>
        <time>2017-02-13T11:36:41Z</time>
      </trkpt>
      <trkpt lat="45.14403" lon="0.51951">
        <ele>92.799987792969</ele>
        <time>2017-02-13T11:36:46Z</time>
      </trkpt>
      <trkpt lat="45.14415" lon="0.51957">
        <ele>93.400024414062</ele>
        <time>2017-02-13T11:36:49Z</time>
      </trkpt>
      <trkpt lat="45.14419" lon="0.51957">
        <ele>93.400024414062</ele>
        <time>2017-02-13T11:36:50Z</time>
      </trkpt>
      <trkpt lat="45.14431" lon="0.51951">
        <ele>93.599975585938</ele>
        <time>2017-02-13T11:36:53Z</time>
      </trkpt>
      <trkpt lat="45.14435" lon="0.51948">
        <ele>93.599975585938</ele>
        <time>2017-02-13T11:36:54Z</time>
      </trkpt>
      <trkpt lat="45.1445" lon="0.51938">
        <ele>92.599975585938</ele>
        <time>2017-02-13T11:36:59Z</time>
      </trkpt>
    </trkseg>
  </trk>
</gpx>